map of TNE home
TNE - Airport
Location
City:  Tanegashima, Tanegashima Island, Osumi Islands, Satsunan Islands, Kagoshima, Japan
Name:New Tanegashima Airport
ICAO:RJFG
IATA:TNE

Details
Type:Airport (Aerodrome, Airfield)
Latitude:3036'18"N (30.605067)
Longitude:13059'28"E (130.991231)
Datum:WGS 1984
Elevation:768 ft (234 m)
Variation:6.64W (WMM2015 magnetic declination)
-0.08 annual change
Runways:1
Longest:6544 × 147 ft (1995 × 45 m), paved

Time
Time Zone:UTC+9
Local Time:

Weather
METAR:RJFG 220300Z 31014KT 9999 FEW025 12/02 Q1017

Related Locations
Nearby:
Farthest:SIQI: 12358 mi / 19889 km
Mostardas [Aerolis], RS, BR

Find:

   beyond  
but within

Other Information
Maps:
NOTAMs:
Links:
Sources:

  
  • flag of Japan
  • flag of Kagoshima
  

Sectional Chart

Flight Planning
at skyvector.com

Satellite Image

Google Maps Satellite view

 

Copyright © 2004-2019 Karl L. Swartz. All rights reserved.
The Great Circle Mapper name and logo are trademarks of the Great Circle Mapper.
All other trademarks mentioned herein belong to their respective owners.
Please see credits for attibutions and further copyright information.

  Follow gcmap on Facebook Follow gcmap on Twitter Follow gcmap on Google+ GCmap on LinkedIn

hCard Microformat

Geo Microformat